Página principal
METAR-TAF:

METAR-TAF

Aeroportos :

Aeroporto Internacional de Incheon

Seul-Incheon, Coreia do Sul

latitude: 37-28N, longitude: 126-27E, altura: 7 m

Observação actual do tempo

O boletim foi feito há 12 minutos, às 21:30 UTC
Vento 13 kt de nor-noroeste
Temperatura 0°C
Humidade 64%
Pressão 1017 hPa
Visibilidade: 4200 m
Poucas nuvensa uma altura de 3000 ft
neblina

METAR: RKSI 162130Z 33013KT 4200 BR FEW030 00/M06 Q1017 NOSIG

Hora: 06:42 (21:42 UTC)

Previsão

O boletim foi feito há 33 minutos, às 21:09 UTC
Previsão válida de 16 às 21 UTC a 17 às 24 UTC
Vento 10 kt de nor-noroeste
Visibilidade: 2800 m
Nuvens dispersasa uma altura de 3000 ft
neblina
Tornando-se
de 16 às 22 UTC a 16 às 23 UTC
Vento 7 kt de nordeste
Visibilidade: 7000 m
Tornando-se
de 17 às 06 UTC a 17 às 07 UTC
Vento 10 kt de nor-noroeste

TAF: RKSI 162109Z 1621/1724 33010KT 2800 BR SCT030 TN00/1621Z TX05/1706Z TN00/1721Z BECMG 1622/1623 05007KT 7000 NSW BECMG 1706/1707 33010KT

Observações e previsões do tempo de mais de 4000 aeroportos (mensagens METAR e TAF).

As estações disponíveis são os pontos amarelos e vermelhos sobre o mapa.

Mova o rato sobre o mapa para ver o nome da estação.

Depois clique no ponto para visualizar as observações e previsões meteorológicas.

Para alterar o mapa : clique nos botões verdes com uma cruz preta para aumentar o zoom; no botão verde com uma pitada de zoom; ou nas setas verdes para mapas adjacentes.


METAR-TAF: